sensor_id;sensor_type;location;lat;lon;timestamp;temperature;humidity
15095;DHT22;7648;52.264;9.632;2023-04-16T00:02:34;9.20;99.90
15095;DHT22;7648;52.264;9.632;2023-04-16T00:06:38;9.20;99.90
15095;DHT22;7648;52.264;9.632;2023-04-16T00:10:39;9.20;99.90
15095;DHT22;7648;52.264;9.632;2023-04-16T00:14:41;9.20;99.90
15095;DHT22;7648;52.264;9.632;2023-04-16T00:18:44;9.20;99.90
15095;DHT22;7648;52.264;9.632;2023-04-16T00:22:47;9.20;99.90
15095;DHT22;7648;52.264;9.632;2023-04-16T00:26:50;9.10;99.90
15095;DHT22;7648;52.264;9.632;2023-04-16T00:30:52;9.10;99.90
15095;DHT22;7648;52.264;9.632;2023-04-16T00:34:54;9.20;99.90
15095;DHT22;7648;52.264;9.632;2023-04-16T00:38:57;9.10;99.90
15095;DHT22;7648;52.264;9.632;2023-04-16T00:42:59;9.10;99.90
15095;DHT22;7648;52.264;9.632;2023-04-16T00:47:01;9.10;99.90
15095;DHT22;7648;52.264;9.632;2023-04-16T00:51:04;9.20;99.90
15095;DHT22;7648;52.264;9.632;2023-04-16T00:55:08;9.20;99.90
15095;DHT22;7648;52.264;9.632;2023-04-16T00:59:12;9.10;99.90
15095;DHT22;7648;52.264;9.632;2023-04-16T01:03:15;9.10;99.90
15095;DHT22;7648;52.264;9.632;2023-04-16T01:07:17;9.10;99.90
15095;DHT22;7648;52.264;9.632;2023-04-16T01:11:20;9.10;99.90
15095;DHT22;7648;52.264;9.632;2023-04-16T01:15:22;9.10;99.90
15095;DHT22;7648;52.264;9.632;2023-04-16T01:19:24;9.10;99.90
15095;DHT22;7648;52.264;9.632;2023-04-16T01:23:27;9.10;99.90
15095;DHT22;7648;52.264;9.632;2023-04-16T01:27:29;9.10;99.90
15095;DHT22;7648;52.264;9.632;2023-04-16T01:31:32;9.10;99.90
15095;DHT22;7648;52.264;9.632;2023-04-16T01:35:41;9.10;99.90
15095;DHT22;7648;52.264;9.632;2023-04-16T01:39:44;9.00;99.90
15095;DHT22;7648;52.264;9.632;2023-04-16T01:43:46;9.00;99.90
15095;DHT22;7648;52.264;9.632;2023-04-16T01:47:48;9.00;99.90
15095;DHT22;7648;52.264;9.632;2023-04-16T01:51:50;8.90;99.90
15095;DHT22;7648;52.264;9.632;2023-04-16T01:55:53;8.80;99.90
15095;DHT22;7648;52.264;9.632;2023-04-16T01:59:55;8.80;99.90
15095;DHT22;7648;52.264;9.632;2023-04-16T02:03:57;8.80;99.90
15095;DHT22;7648;52.264;9.632;2023-04-16T02:08:00;8.80;99.90
15095;DHT22;7648;52.264;9.632;2023-04-16T02:12:04;8.70;99.90
15095;DHT22;7648;52.264;9.632;2023-04-16T02:16:06;8.70;99.90
15095;DHT22;7648;52.264;9.632;2023-04-16T02:20:19;8.70;99.90
15095;DHT22;7648;52.264;9.632;2023-04-16T02:24:26;8.70;99.90
15095;DHT22;7648;52.264;9.632;2023-04-16T02:28:31;8.60;99.90
15095;DHT22;7648;52.264;9.632;2023-04-16T02:32:33;8.60;99.90
15095;DHT22;7648;52.264;9.632;2023-04-16T02:36:35;8.60;99.90
15095;DHT22;7648;52.264;9.632;2023-04-16T02:40:37;8.60;99.90
15095;DHT22;7648;52.264;9.632;2023-04-16T02:44:40;8.60;99.90
15095;DHT22;7648;52.264;9.632;2023-04-16T02:48:42;8.60;99.90
15095;DHT22;7648;52.264;9.632;2023-04-16T02:52:44;8.50;99.90
15095;DHT22;7648;52.264;9.632;2023-04-16T02:56:46;8.50;99.90
15095;DHT22;7648;52.264;9.632;2023-04-16T03:00:49;8.40;99.90
15095;DHT22;7648;52.264;9.632;2023-04-16T03:04:51;8.40;99.90
15095;DHT22;7648;52.264;9.632;2023-04-16T03:08:53;8.30;99.90
15095;DHT22;7648;52.264;9.632;2023-04-16T03:12:55;8.30;99.90
15095;DHT22;7648;52.264;9.632;2023-04-16T03:16:58;8.30;99.90
15095;DHT22;7648;52.264;9.632;2023-04-16T03:21:00;8.30;99.90
15095;DHT22;7648;52.264;9.632;2023-04-16T03:25:02;8.20;99.90
15095;DHT22;7648;52.264;9.632;2023-04-16T03:29:05;8.20;99.90
15095;DHT22;7648;52.264;9.632;2023-04-16T03:33:08;8.10;99.90
15095;DHT22;7648;52.264;9.632;2023-04-16T03:37:11;8.10;99.90
15095;DHT22;7648;52.264;9.632;2023-04-16T03:41:13;8.10;99.90
15095;DHT22;7648;52.264;9.632;2023-04-16T03:45:16;8.00;99.90
15095;DHT22;7648;52.264;9.632;2023-04-16T03:49:21;8.00;99.90
15095;DHT22;7648;52.264;9.632;2023-04-16T03:53:23;8.00;99.90
15095;DHT22;7648;52.264;9.632;2023-04-16T03:57:25;7.90;99.90
15095;DHT22;7648;52.264;9.632;2023-04-16T04:01:31;8.00;99.90
15095;DHT22;7648;52.264;9.632;2023-04-16T04:05:36;8.00;99.90
15095;DHT22;7648;52.264;9.632;2023-04-16T04:09:38;8.00;99.90
15095;DHT22;7648;52.264;9.632;2023-04-16T04:13:41;7.90;99.90
15095;DHT22;7648;52.264;9.632;2023-04-16T04:17:43;7.80;99.90
15095;DHT22;7648;52.264;9.632;2023-04-16T04:21:47;7.80;99.90
15095;DHT22;7648;52.264;9.632;2023-04-16T04:25:51;7.80;99.90
15095;DHT22;7648;52.264;9.632;2023-04-16T04:29:53;7.80;99.90
15095;DHT22;7648;52.264;9.632;2023-04-16T04:33:56;7.80;99.90
15095;DHT22;7648;52.264;9.632;2023-04-16T04:38:00;7.70;99.90
15095;DHT22;7648;52.264;9.632;2023-04-16T04:42:02;7.70;99.90
15095;DHT22;7648;52.264;9.632;2023-04-16T04:46:04;7.70;99.90
15095;DHT22;7648;52.264;9.632;2023-04-16T04:50:07;7.70;99.90
15095;DHT22;7648;52.264;9.632;2023-04-16T04:54:11;7.70;99.90
15095;DHT22;7648;52.264;9.632;2023-04-16T04:58:12;7.60;99.90
15095;DHT22;7648;52.264;9.632;2023-04-16T05:02:16;7.60;99.90
15095;DHT22;7648;52.264;9.632;2023-04-16T05:06:18;7.60;99.90
15095;DHT22;7648;52.264;9.632;2023-04-16T05:10:21;7.60;99.90
15095;DHT22;7648;52.264;9.632;2023-04-16T05:14:23;7.60;99.90
15095;DHT22;7648;52.264;9.632;2023-04-16T05:18:25;7.60;99.90
15095;DHT22;7648;52.264;9.632;2023-04-16T05:22:27;7.60;99.90
15095;DHT22;7648;52.264;9.632;2023-04-16T05:26:30;7.60;99.90
15095;DHT22;7648;52.264;9.632;2023-04-16T05:30:32;7.60;99.90
15095;DHT22;7648;52.264;9.632;2023-04-16T05:34:34;7.60;99.90
15095;DHT22;7648;52.264;9.632;2023-04-16T05:38:35;7.60;99.90
15095;DHT22;7648;52.264;9.632;2023-04-16T05:42:39;7.60;99.90
15095;DHT22;7648;52.264;9.632;2023-04-16T05:46:41;7.60;99.90
15095;DHT22;7648;52.264;9.632;2023-04-16T05:50:42;7.70;99.90
15095;DHT22;7648;52.264;9.632;2023-04-16T05:54:44;7.70;99.90
15095;DHT22;7648;52.264;9.632;2023-04-16T05:58:48;7.70;99.90
15095;DHT22;7648;52.264;9.632;2023-04-16T06:02:49;7.70;99.90
15095;DHT22;7648;52.264;9.632;2023-04-16T06:06:51;7.70;99.90
15095;DHT22;7648;52.264;9.632;2023-04-16T06:10:53;7.70;99.90
15095;DHT22;7648;52.264;9.632;2023-04-16T06:14:57;7.80;99.90
15095;DHT22;7648;52.264;9.632;2023-04-16T06:18:59;7.80;99.90
15095;DHT22;7648;52.264;9.632;2023-04-16T06:23:01;7.80;99.90
15095;DHT22;7648;52.264;9.632;2023-04-16T06:27:03;7.90;99.90
15095;DHT22;7648;52.264;9.632;2023-04-16T06:31:06;7.90;99.90
15095;DHT22;7648;52.264;9.632;2023-04-16T06:35:08;8.00;99.90
15095;DHT22;7648;52.264;9.632;2023-04-16T06:39:10;8.00;99.90
15095;DHT22;7648;52.264;9.632;2023-04-16T06:43:12;8.00;99.90
15095;DHT22;7648;52.264;9.632;2023-04-16T06:47:16;8.00;99.90
15095;DHT22;7648;52.264;9.632;2023-04-16T06:51:18;8.00;99.90
15095;DHT22;7648;52.264;9.632;2023-04-16T06:55:20;8.10;99.90
15095;DHT22;7648;52.264;9.632;2023-04-16T06:59:22;8.10;99.90
15095;DHT22;7648;52.264;9.632;2023-04-16T07:03:25;8.10;99.90
15095;DHT22;7648;52.264;9.632;2023-04-16T07:07:27;8.10;99.90
15095;DHT22;7648;52.264;9.632;2023-04-16T07:11:29;8.20;99.90
15095;DHT22;7648;52.264;9.632;2023-04-16T07:15:31;8.20;99.90
15095;DHT22;7648;52.264;9.632;2023-04-16T07:19:34;8.30;99.90
15095;DHT22;7648;52.264;9.632;2023-04-16T07:23:36;8.30;99.90
15095;DHT22;7648;52.264;9.632;2023-04-16T07:27:38;8.40;99.90
15095;DHT22;7648;52.264;9.632;2023-04-16T07:31:40;8.40;99.90
15095;DHT22;7648;52.264;9.632;2023-04-16T07:35:43;8.40;99.90
15095;DHT22;7648;52.264;9.632;2023-04-16T07:39:45;8.40;99.90
15095;DHT22;7648;52.264;9.632;2023-04-16T07:43:47;8.40;99.90
15095;DHT22;7648;52.264;9.632;2023-04-16T07:47:49;8.40;99.90
15095;DHT22;7648;52.264;9.632;2023-04-16T07:51:53;8.50;99.90
15095;DHT22;7648;52.264;9.632;2023-04-16T07:55:54;8.50;99.90
15095;DHT22;7648;52.264;9.632;2023-04-16T07:59:56;8.50;99.90
15095;DHT22;7648;52.264;9.632;2023-04-16T08:03:58;8.60;99.90
15095;DHT22;7648;52.264;9.632;2023-04-16T08:08:01;8.70;99.90
15095;DHT22;7648;52.264;9.632;2023-04-16T08:12:04;8.80;99.90
15095;DHT22;7648;52.264;9.632;2023-04-16T08:16:06;8.90;99.90
15095;DHT22;7648;52.264;9.632;2023-04-16T08:20:08;9.00;99.90
15095;DHT22;7648;52.264;9.632;2023-04-16T08:24:12;9.10;99.90
15095;DHT22;7648;52.264;9.632;2023-04-16T08:28:14;9.10;99.90
15095;DHT22;7648;52.264;9.632;2023-04-16T08:32:16;9.10;99.90
15095;DHT22;7648;52.264;9.632;2023-04-16T08:36:18;9.10;99.90
15095;DHT22;7648;52.264;9.632;2023-04-16T08:40:23;9.10;99.90
15095;DHT22;7648;52.264;9.632;2023-04-16T08:44:27;9.20;99.90
15095;DHT22;7648;52.264;9.632;2023-04-16T08:48:32;9.20;99.90
15095;DHT22;7648;52.264;9.632;2023-04-16T08:52:37;9.30;99.90
15095;DHT22;7648;52.264;9.632;2023-04-16T08:56:45;9.30;99.90
15095;DHT22;7648;52.264;9.632;2023-04-16T09:00:48;9.30;99.90
15095;DHT22;7648;52.264;9.632;2023-04-16T09:04:50;9.30;99.90
15095;DHT22;7648;52.264;9.632;2023-04-16T09:08:53;9.40;99.90
15095;DHT22;7648;52.264;9.632;2023-04-16T09:12:58;9.40;99.90
15095;DHT22;7648;52.264;9.632;2023-04-16T09:17:00;9.50;99.90
15095;DHT22;7648;52.264;9.632;2023-04-16T09:21:03;9.50;99.90
15095;DHT22;7648;52.264;9.632;2023-04-16T09:25:06;9.50;99.90
15095;DHT22;7648;52.264;9.632;2023-04-16T09:29:09;9.60;99.90
15095;DHT22;7648;52.264;9.632;2023-04-16T09:33:17;9.60;99.90
15095;DHT22;7648;52.264;9.632;2023-04-16T09:37:22;9.60;99.90
15095;DHT22;7648;52.264;9.632;2023-04-16T09:41:25;9.60;99.90
15095;DHT22;7648;52.264;9.632;2023-04-16T09:45:31;9.60;99.90
15095;DHT22;7648;52.264;9.632;2023-04-16T09:49:34;9.60;99.90
15095;DHT22;7648;52.264;9.632;2023-04-16T09:53:36;9.50;99.90
15095;DHT22;7648;52.264;9.632;2023-04-16T09:57:39;9.50;99.90
15095;DHT22;7648;52.264;9.632;2023-04-16T10:01:42;9.50;99.90
15095;DHT22;7648;52.264;9.632;2023-04-16T10:05:46;9.50;99.90
15095;DHT22;7648;52.264;9.632;2023-04-16T10:09:48;9.50;99.90
15095;DHT22;7648;52.264;9.632;2023-04-16T10:13:52;9.50;99.90
15095;DHT22;7648;52.264;9.632;2023-04-16T10:17:56;9.50;99.90
15095;DHT22;7648;52.264;9.632;2023-04-16T10:22:00;9.50;99.90
15095;DHT22;7648;52.264;9.632;2023-04-16T10:26:01;9.50;99.90
15095;DHT22;7648;52.264;9.632;2023-04-16T10:30:05;9.50;99.90
15095;DHT22;7648;52.264;9.632;2023-04-16T10:34:09;9.40;99.90
15095;DHT22;7648;52.264;9.632;2023-04-16T10:38:21;9.50;99.90
15095;DHT22;7648;52.264;9.632;2023-04-16T10:42:24;9.40;99.90
15095;DHT22;7648;52.264;9.632;2023-04-16T10:46:31;9.50;99.90
15095;DHT22;7648;52.264;9.632;2023-04-16T10:50:35;9.50;99.90
15095;DHT22;7648;52.264;9.632;2023-04-16T10:54:38;9.50;99.90
15095;DHT22;7648;52.264;9.632;2023-04-16T10:58:40;9.60;99.90
15095;DHT22;7648;52.264;9.632;2023-04-16T11:02:42;9.60;99.90
15095;DHT22;7648;52.264;9.632;2023-04-16T11:06:59;9.50;99.90
15095;DHT22;7648;52.264;9.632;2023-04-16T11:11:04;9.30;99.90
15095;DHT22;7648;52.264;9.632;2023-04-16T11:15:07;9.30;99.90
15095;DHT22;7648;52.264;9.632;2023-04-16T11:19:15;9.30;99.90
15095;DHT22;7648;52.264;9.632;2023-04-16T11:23:19;9.30;99.90
15095;DHT22;7648;52.264;9.632;2023-04-16T11:27:21;9.30;99.90
15095;DHT22;7648;52.264;9.632;2023-04-16T11:31:25;9.20;99.90
15095;DHT22;7648;52.264;9.632;2023-04-16T11:35:27;9.20;99.90
15095;DHT22;7648;52.264;9.632;2023-04-16T11:39:31;9.20;99.90
15095;DHT22;7648;52.264;9.632;2023-04-16T11:43:32;9.20;99.90
15095;DHT22;7648;52.264;9.632;2023-04-16T11:47:42;9.30;99.90
15095;DHT22;7648;52.264;9.632;2023-04-16T11:51:46;9.30;99.90
15095;DHT22;7648;52.264;9.632;2023-04-16T11:55:49;9.20;99.90
15095;DHT22;7648;52.264;9.632;2023-04-16T11:59:51;9.20;99.90
15095;DHT22;7648;52.264;9.632;2023-04-16T12:04:00;9.20;99.90
15095;DHT22;7648;52.264;9.632;2023-04-16T12:08:04;9.20;99.90
15095;DHT22;7648;52.264;9.632;2023-04-16T12:12:24;9.10;99.90
15095;DHT22;7648;52.264;9.632;2023-04-16T12:16:26;9.10;99.90
15095;DHT22;7648;52.264;9.632;2023-04-16T12:20:38;9.20;99.90
15095;DHT22;7648;52.264;9.632;2023-04-16T12:24:41;9.20;99.90
15095;DHT22;7648;52.264;9.632;2023-04-16T12:28:44;9.20;99.90
15095;DHT22;7648;52.264;9.632;2023-04-16T12:32:47;9.20;99.90
15095;DHT22;7648;52.264;9.632;2023-04-16T12:37:04;9.30;99.90
15095;DHT22;7648;52.264;9.632;2023-04-16T12:41:06;9.30;99.90
15095;DHT22;7648;52.264;9.632;2023-04-16T12:45:10;9.40;99.90
15095;DHT22;7648;52.264;9.632;2023-04-16T12:49:11;9.40;99.90
15095;DHT22;7648;52.264;9.632;2023-04-16T12:53:13;9.50;99.90
15095;DHT22;7648;52.264;9.632;2023-04-16T12:57:18;9.50;99.90
15095;DHT22;7648;52.264;9.632;2023-04-16T13:01:22;9.50;99.90
15095;DHT22;7648;52.264;9.632;2023-04-16T13:05:24;9.50;99.90
15095;DHT22;7648;52.264;9.632;2023-04-16T13:09:26;9.50;99.90
15095;DHT22;7648;52.264;9.632;2023-04-16T13:13:28;9.50;99.90
15095;DHT22;7648;52.264;9.632;2023-04-16T13:17:31;9.60;99.90
15095;DHT22;7648;52.264;9.632;2023-04-16T13:21:33;9.70;99.90
15095;DHT22;7648;52.264;9.632;2023-04-16T13:25:35;9.70;99.90
15095;DHT22;7648;52.264;9.632;2023-04-16T13:29:37;9.80;99.90
15095;DHT22;7648;52.264;9.632;2023-04-16T13:33:40;10.00;99.90
15095;DHT22;7648;52.264;9.632;2023-04-16T13:37:42;10.10;99.90
15095;DHT22;7648;52.264;9.632;2023-04-16T13:41:44;10.30;99.90
15095;DHT22;7648;52.264;9.632;2023-04-16T13:45:47;10.40;99.90
15095;DHT22;7648;52.264;9.632;2023-04-16T13:49:50;10.60;99.90
15095;DHT22;7648;52.264;9.632;2023-04-16T13:53:52;10.80;99.90
15095;DHT22;7648;52.264;9.632;2023-04-16T13:57:54;11.00;99.90
15095;DHT22;7648;52.264;9.632;2023-04-16T14:01:56;11.40;99.90
15095;DHT22;7648;52.264;9.632;2023-04-16T14:06:00;12.00;99.90
15095;DHT22;7648;52.264;9.632;2023-04-16T14:10:01;12.60;99.90
15095;DHT22;7648;52.264;9.632;2023-04-16T14:14:03;13.30;99.90
15095;DHT22;7648;52.264;9.632;2023-04-16T14:18:06;13.50;99.90
15095;DHT22;7648;52.264;9.632;2023-04-16T14:22:09;13.50;99.90
15095;DHT22;7648;52.264;9.632;2023-04-16T14:26:11;13.50;99.90
15095;DHT22;7648;52.264;9.632;2023-04-16T14:30:13;13.40;99.90
15095;DHT22;7648;52.264;9.632;2023-04-16T14:34:16;13.00;99.90
15095;DHT22;7648;52.264;9.632;2023-04-16T14:38:19;12.80;99.90
15095;DHT22;7648;52.264;9.632;2023-04-16T14:42:21;12.70;99.90
15095;DHT22;7648;52.264;9.632;2023-04-16T14:46:23;12.60;99.90
15095;DHT22;7648;52.264;9.632;2023-04-16T14:50:26;12.70;99.90
15095;DHT22;7648;52.264;9.632;2023-04-16T14:54:30;12.80;99.90
15095;DHT22;7648;52.264;9.632;2023-04-16T14:58:32;12.80;99.90
15095;DHT22;7648;52.264;9.632;2023-04-16T15:02:35;12.70;99.90
15095;DHT22;7648;52.264;9.632;2023-04-16T15:06:37;12.60;99.90
15095;DHT22;7648;52.264;9.632;2023-04-16T15:10:40;12.40;99.90
15095;DHT22;7648;52.264;9.632;2023-04-16T15:14:45;12.30;99.90
15095;DHT22;7648;52.264;9.632;2023-04-16T15:18:47;12.30;99.90
15095;DHT22;7648;52.264;9.632;2023-04-16T15:22:49;12.20;99.90
15095;DHT22;7648;52.264;9.632;2023-04-16T15:26:52;12.30;99.90
15095;DHT22;7648;52.264;9.632;2023-04-16T15:30:54;12.30;99.90
15095;DHT22;7648;52.264;9.632;2023-04-16T15:34:56;12.30;99.90
15095;DHT22;7648;52.264;9.632;2023-04-16T15:38:59;12.40;99.90
15095;DHT22;7648;52.264;9.632;2023-04-16T15:43:02;12.50;99.90
15095;DHT22;7648;52.264;9.632;2023-04-16T15:47:04;12.50;99.90
15095;DHT22;7648;52.264;9.632;2023-04-16T15:51:08;12.60;99.90
15095;DHT22;7648;52.264;9.632;2023-04-16T15:55:10;12.60;99.90
15095;DHT22;7648;52.264;9.632;2023-04-16T15:59:13;12.70;99.90
15095;DHT22;7648;52.264;9.632;2023-04-16T16:03:16;12.70;99.90
15095;DHT22;7648;52.264;9.632;2023-04-16T16:07:18;12.60;99.90
15095;DHT22;7648;52.264;9.632;2023-04-16T16:11:20;12.40;99.90
15095;DHT22;7648;52.264;9.632;2023-04-16T16:15:23;12.40;99.90
15095;DHT22;7648;52.264;9.632;2023-04-16T16:19:25;12.30;99.90
15095;DHT22;7648;52.264;9.632;2023-04-16T16:23:27;12.20;99.90
15095;DHT22;7648;52.264;9.632;2023-04-16T16:27:29;12.00;99.90
15095;DHT22;7648;52.264;9.632;2023-04-16T16:31:32;12.00;99.90
15095;DHT22;7648;52.264;9.632;2023-04-16T16:35:34;12.00;99.90
15095;DHT22;7648;52.264;9.632;2023-04-16T16:39:36;11.90;99.90
15095;DHT22;7648;52.264;9.632;2023-04-16T16:43:38;11.90;99.90
15095;DHT22;7648;52.264;9.632;2023-04-16T16:47:41;11.90;99.90
15095;DHT22;7648;52.264;9.632;2023-04-16T16:51:44;12.00;99.90
15095;DHT22;7648;52.264;9.632;2023-04-16T16:55:46;12.00;99.90
15095;DHT22;7648;52.264;9.632;2023-04-16T16:59:48;12.10;99.90
15095;DHT22;7648;52.264;9.632;2023-04-16T17:03:51;12.10;99.90
15095;DHT22;7648;52.264;9.632;2023-04-16T17:07:53;12.10;99.90
15095;DHT22;7648;52.264;9.632;2023-04-16T17:11:55;12.10;99.90
15095;DHT22;7648;52.264;9.632;2023-04-16T17:15:57;12.00;99.90
15095;DHT22;7648;52.264;9.632;2023-04-16T17:20:00;12.00;99.90
15095;DHT22;7648;52.264;9.632;2023-04-16T17:24:07;11.90;99.90
15095;DHT22;7648;52.264;9.632;2023-04-16T17:28:09;11.80;99.90
15095;DHT22;7648;52.264;9.632;2023-04-16T17:32:11;11.60;99.90
15095;DHT22;7648;52.264;9.632;2023-04-16T17:36:14;11.60;99.90
15095;DHT22;7648;52.264;9.632;2023-04-16T17:40:16;11.60;99.90
15095;DHT22;7648;52.264;9.632;2023-04-16T17:44:18;11.60;99.90
15095;DHT22;7648;52.264;9.632;2023-04-16T17:48:20;11.50;99.90
15095;DHT22;7648;52.264;9.632;2023-04-16T17:52:24;11.50;99.90
15095;DHT22;7648;52.264;9.632;2023-04-16T17:56:26;11.40;99.90
15095;DHT22;7648;52.264;9.632;2023-04-16T18:00:27;11.40;99.90
15095;DHT22;7648;52.264;9.632;2023-04-16T18:04:29;11.30;99.90
15095;DHT22;7648;52.264;9.632;2023-04-16T18:08:33;11.20;99.90
15095;DHT22;7648;52.264;9.632;2023-04-16T18:12:36;11.20;99.90
15095;DHT22;7648;52.264;9.632;2023-04-16T18:16:38;11.10;99.90
15095;DHT22;7648;52.264;9.632;2023-04-16T18:20:41;11.00;99.90
15095;DHT22;7648;52.264;9.632;2023-04-16T18:24:44;11.00;99.90
15095;DHT22;7648;52.264;9.632;2023-04-16T18:28:46;10.90;99.90
15095;DHT22;7648;52.264;9.632;2023-04-16T18:32:48;10.90;99.90
15095;DHT22;7648;52.264;9.632;2023-04-16T18:36:50;10.80;99.90
15095;DHT22;7648;52.264;9.632;2023-04-16T18:40:53;10.80;99.90
15095;DHT22;7648;52.264;9.632;2023-04-16T18:44:55;10.80;99.90
15095;DHT22;7648;52.264;9.632;2023-04-16T18:48:57;10.70;99.90
15095;DHT22;7648;52.264;9.632;2023-04-16T18:52:59;10.70;99.90
15095;DHT22;7648;52.264;9.632;2023-04-16T18:57:02;10.70;99.90
15095;DHT22;7648;52.264;9.632;2023-04-16T19:01:04;10.70;99.90
15095;DHT22;7648;52.264;9.632;2023-04-16T19:05:10;10.60;99.90
15095;DHT22;7648;52.264;9.632;2023-04-16T19:09:12;10.60;99.90
15095;DHT22;7648;52.264;9.632;2023-04-16T19:13:15;10.60;99.90
15095;DHT22;7648;52.264;9.632;2023-04-16T19:17:17;10.50;99.90
15095;DHT22;7648;52.264;9.632;2023-04-16T19:21:19;10.50;99.90
15095;DHT22;7648;52.264;9.632;2023-04-16T19:25:20;10.40;99.90
15095;DHT22;7648;52.264;9.632;2023-04-16T19:29:24;10.30;99.90
15095;DHT22;7648;52.264;9.632;2023-04-16T19:33:27;10.20;99.90
15095;DHT22;7648;52.264;9.632;2023-04-16T19:37:29;10.10;99.90
15095;DHT22;7648;52.264;9.632;2023-04-16T19:41:31;10.00;99.90
15095;DHT22;7648;52.264;9.632;2023-04-16T19:45:34;9.90;99.90
15095;DHT22;7648;52.264;9.632;2023-04-16T19:49:36;9.80;99.90
15095;DHT22;7648;52.264;9.632;2023-04-16T19:53:37;9.70;99.90
15095;DHT22;7648;52.264;9.632;2023-04-16T19:57:40;9.70;99.90
15095;DHT22;7648;52.264;9.632;2023-04-16T20:01:43;9.60;99.90
15095;DHT22;7648;52.264;9.632;2023-04-16T20:05:47;9.60;99.90
15095;DHT22;7648;52.264;9.632;2023-04-16T20:09:49;9.50;99.90
15095;DHT22;7648;52.264;9.632;2023-04-16T20:13:51;9.50;99.90
15095;DHT22;7648;52.264;9.632;2023-04-16T20:17:55;9.50;99.90
15095;DHT22;7648;52.264;9.632;2023-04-16T20:21:57;9.50;99.90
15095;DHT22;7648;52.264;9.632;2023-04-16T20:25:59;9.50;99.90
15095;DHT22;7648;52.264;9.632;2023-04-16T20:30:01;9.50;99.90
15095;DHT22;7648;52.264;9.632;2023-04-16T20:34:05;9.40;99.90
15095;DHT22;7648;52.264;9.632;2023-04-16T20:38:06;9.50;99.90
15095;DHT22;7648;52.264;9.632;2023-04-16T20:42:08;9.40;99.90
15095;DHT22;7648;52.264;9.632;2023-04-16T20:46:11;9.50;99.90
15095;DHT22;7648;52.264;9.632;2023-04-16T20:50:14;9.50;99.90
15095;DHT22;7648;52.264;9.632;2023-04-16T20:54:16;9.40;99.90
15095;DHT22;7648;52.264;9.632;2023-04-16T20:58:18;9.40;99.90
15095;DHT22;7648;52.264;9.632;2023-04-16T21:02:20;9.40;99.90
15095;DHT22;7648;52.264;9.632;2023-04-16T21:06:24;9.40;99.90
15095;DHT22;7648;52.264;9.632;2023-04-16T21:10:26;9.50;99.90
15095;DHT22;7648;52.264;9.632;2023-04-16T21:14:28;9.50;99.90
15095;DHT22;7648;52.264;9.632;2023-04-16T21:18:30;9.50;99.90
15095;DHT22;7648;52.264;9.632;2023-04-16T21:22:34;9.50;99.90
15095;DHT22;7648;52.264;9.632;2023-04-16T21:26:35;9.50;99.90
15095;DHT22;7648;52.264;9.632;2023-04-16T21:30:37;9.50;99.90
15095;DHT22;7648;52.264;9.632;2023-04-16T21:34:39;9.50;99.90
15095;DHT22;7648;52.264;9.632;2023-04-16T21:38:42;9.50;99.90
15095;DHT22;7648;52.264;9.632;2023-04-16T21:42:44;9.50;99.90
15095;DHT22;7648;52.264;9.632;2023-04-16T21:46:46;9.40;99.90
15095;DHT22;7648;52.264;9.632;2023-04-16T21:50:53;9.40;99.90
15095;DHT22;7648;52.264;9.632;2023-04-16T21:54:57;9.40;99.90
15095;DHT22;7648;52.264;9.632;2023-04-16T21:58:58;9.40;99.90
15095;DHT22;7648;52.264;9.632;2023-04-16T22:03:00;9.40;99.90
15095;DHT22;7648;52.264;9.632;2023-04-16T22:07:04;9.40;99.90
15095;DHT22;7648;52.264;9.632;2023-04-16T22:11:09;9.30;99.90
15095;DHT22;7648;52.264;9.632;2023-04-16T22:15:12;9.30;99.90
15095;DHT22;7648;52.264;9.632;2023-04-16T22:19:13;9.30;99.90
15095;DHT22;7648;52.264;9.632;2023-04-16T22:23:17;9.20;99.90
15095;DHT22;7648;52.264;9.632;2023-04-16T22:27:20;9.20;99.90
15095;DHT22;7648;52.264;9.632;2023-04-16T22:31:22;9.20;99.90
15095;DHT22;7648;52.264;9.632;2023-04-16T22:35:24;9.20;99.90
15095;DHT22;7648;52.264;9.632;2023-04-16T22:39:26;9.20;99.90
15095;DHT22;7648;52.264;9.632;2023-04-16T22:43:29;9.20;99.90
15095;DHT22;7648;52.264;9.632;2023-04-16T22:47:31;9.20;99.90
15095;DHT22;7648;52.264;9.632;2023-04-16T22:51:33;9.20;99.90
15095;DHT22;7648;52.264;9.632;2023-04-16T22:55:34;9.20;99.90
15095;DHT22;7648;52.264;9.632;2023-04-16T22:59:38;9.20;99.90
15095;DHT22;7648;52.264;9.632;2023-04-16T23:03:40;9.10;99.90
15095;DHT22;7648;52.264;9.632;2023-04-16T23:07:42;9.10;99.90
15095;DHT22;7648;52.264;9.632;2023-04-16T23:11:43;9.10;99.90
15095;DHT22;7648;52.264;9.632;2023-04-16T23:15:47;9.10;99.90
15095;DHT22;7648;52.264;9.632;2023-04-16T23:19:49;9.20;99.90
15095;DHT22;7648;52.264;9.632;2023-04-16T23:23:50;9.10;99.90
15095;DHT22;7648;52.264;9.632;2023-04-16T23:27:52;9.10;99.90
15095;DHT22;7648;52.264;9.632;2023-04-16T23:31:56;9.10;99.90
15095;DHT22;7648;52.264;9.632;2023-04-16T23:35:58;9.10;99.90
15095;DHT22;7648;52.264;9.632;2023-04-16T23:40:00;9.10;99.90
15095;DHT22;7648;52.264;9.632;2023-04-16T23:44:01;9.10;99.90
15095;DHT22;7648;52.264;9.632;2023-04-16T23:48:05;9.10;99.90
15095;DHT22;7648;52.264;9.632;2023-04-16T23:52:07;9.00;99.90
15095;DHT22;7648;52.264;9.632;2023-04-16T23:56:09;9.00;99.90
